Time;durP1;ratioP1;P1;durP2;ratioP2;P2;SDS_P1;SDS_P2;PMS_P1;PMS_P2;Temp;Humidity;BMP_temperature;BMP_pressure;BME280_temperature;BME280_humidity;BME280_pressure;Samples;Min_cycle;Max_cycle;Signal;HPM_P1;HPM_P2
2023/04/18 00:01:08;;;;;;;10.07;5.03;;;8.90;99.90;8.90;101446.00;;;;4958539;28;107328;-65
2023/04/18 00:03:36;;;;;;;4.67;3.83;;;8.90;99.90;8.90;101445.00;;;;4966714;28;82931;-65
2023/04/18 00:06:02;;;;;;;5.27;4.73;;;8.90;99.90;8.80;101443.00;;;;4952569;28;82983;-66
2023/04/18 00:08:28;;;;;;;5.77;4.17;;;9.00;99.90;8.80;101442.00;;;;4954089;28;104995;-67
2023/04/18 00:10:54;;;;;;;7.17;3.77;;;8.90;99.90;8.80;101451.00;;;;4971368;28;108524;-66
2023/04/18 00:13:19;;;;;;;7.63;3.50;;;8.90;99.90;8.80;101443.00;;;;4959030;28;92178;-66
2023/04/18 00:15:45;;;;;;;7.03;4.47;;;8.90;99.90;8.80;101440.00;;;;4957607;28;113287;-66
2023/04/18 00:18:16;;;;;;;5.83;4.17;;;8.80;99.90;8.80;101446.00;;;;4958432;28;110337;-66
2023/04/18 00:20:42;;;;;;;5.37;4.13;;;8.90;99.90;8.70;101448.00;;;;4957006;28;83309;-64
2023/04/18 00:23:07;;;;;;;5.87;3.93;;;8.80;99.90;8.70;101448.00;;;;4953461;28;114594;-65
2023/04/18 00:25:33;;;;;;;3.73;3.40;;;8.80;99.90;8.70;101448.00;;;;4951686;28;113257;-66
2023/04/18 00:27:59;;;;;;;4.50;4.07;;;8.80;99.90;8.70;101444.00;;;;4955036;28;111233;-66
2023/04/18 00:30:25;;;;;;;4.93;3.53;;;8.80;99.90;8.70;101442.00;;;;4954337;28;110355;-66
2023/04/18 00:32:51;;;;;;;5.37;4.40;;;8.80;99.90;8.70;101448.00;;;;4958750;28;83111;-66
2023/04/18 00:35:18;;;;;;;5.63;4.33;;;8.80;99.90;8.70;101439.00;;;;4956407;28;91112;-66
2023/04/18 00:37:44;;;;;;;5.63;4.83;;;8.80;99.90;8.70;101452.00;;;;4956225;28;98750;-65
2023/04/18 00:40:10;;;;;;;6.97;4.53;;;8.80;99.90;8.70;101457.00;;;;4955783;28;82036;-66
2023/04/18 00:42:36;;;;;;;7.13;5.17;;;8.80;99.90;8.70;101453.00;;;;4955603;28;82775;-66
2023/04/18 00:45:01;;;;;;;7.77;4.60;;;8.70;99.90;8.60;101450.00;;;;4950789;28;111612;-67
2023/04/18 00:47:27;;;;;;;6.30;4.50;;;8.70;99.90;8.60;101450.00;;;;4954588;28;98895;-65
2023/04/18 00:49:53;;;;;;;7.07;5.03;;;8.80;99.90;8.60;101449.00;;;;4954052;28;82990;-67
2023/04/18 00:52:20;;;;;;;6.60;4.80;;;8.70;99.90;8.60;101456.00;;;;4964254;28;83143;-65
2023/04/18 00:54:46;;;;;;;6.60;3.93;;;8.70;99.90;8.60;101447.00;;;;4955429;28;83057;-66
2023/04/18 00:57:12;;;;;;;6.03;3.80;;;8.70;99.90;8.60;101448.00;;;;4956111;28;109650;-67
2023/04/18 00:59:38;;;;;;;4.53;4.07;;;8.70;99.90;8.60;101442.00;;;;4968508;28;87559;-67
2023/04/18 01:02:04;;;;;;;5.40;4.17;;;8.70;99.90;8.60;101456.00;;;;4982641;27;111423;-66
2023/04/18 01:04:33;;;;;;;3.73;3.37;;;8.70;99.90;8.50;101456.00;;;;4956013;28;82954;-67
2023/04/18 01:07:01;;;;;;;5.20;4.43;;;8.60;99.90;8.50;101459.00;;;;4954510;28;82718;-66
2023/04/18 01:09:27;;;;;;;6.40;4.37;;;8.60;99.90;8.50;101454.00;;;;4971575;28;82871;-67
2023/04/18 01:11:52;;;;;;;6.00;4.20;;;8.60;99.90;8.40;101452.00;;;;4953928;28;95278;-66
2023/04/18 01:14:19;;;;;;;6.73;4.77;;;8.50;99.90;8.40;101457.00;;;;4953120;28;112234;-66
2023/04/18 01:16:46;;;;;;;5.27;4.57;;;8.50;99.90;8.30;101449.00;;;;4953802;28;82707;-65
2023/04/18 01:19:11;;;;;;;4.40;3.97;;;8.40;99.90;8.30;101453.00;;;;4955971;28;82923;-65
2023/04/18 01:21:42;;;;;;;5.27;4.33;;;8.40;99.90;8.30;101448.00;;;;4950735;28;82713;-67
2023/04/18 01:24:15;;;;;;;5.67;4.83;;;8.40;99.90;8.30;101452.00;;;;4954939;28;83830;-65
2023/04/18 01:26:43;;;;;;;4.10;3.70;;;8.30;99.90;8.20;101463.00;;;;4952411;28;82795;-66
2023/04/18 01:29:09;;;;;;;4.83;4.33;;;8.40;99.90;8.20;101455.00;;;;4956658;28;81977;-66
2023/04/18 01:31:37;;;;;;;6.43;4.90;;;8.30;99.90;8.20;101448.00;;;;4955057;28;104528;-65
2023/04/18 01:34:03;;;;;;;4.77;4.37;;;8.30;99.90;8.20;101459.00;;;;4955861;28;82692;-66
2023/04/18 01:36:30;;;;;;;7.93;4.43;;;8.30;99.90;8.20;101452.00;;;;4972231;28;83682;-67
2023/04/18 01:38:57;;;;;;;5.03;3.70;;;8.30;99.90;8.20;101446.00;;;;4951821;28;82772;-65
2023/04/18 01:41:22;;;;;;;4.70;3.90;;;8.30;99.90;8.20;101452.00;;;;4969044;28;102412;-66
2023/04/18 01:43:48;;;;;;;6.80;5.80;;;8.30;99.90;8.10;101451.00;;;;4957422;28;94253;-65
2023/04/18 01:46:14;;;;;;;6.37;4.20;;;8.20;99.90;8.10;101444.00;;;;4956096;28;110293;-66
2023/04/18 01:48:40;;;;;;;5.53;4.30;;;8.20;99.90;8.10;101449.00;;;;4955276;28;82776;-65
2023/04/18 01:51:05;;;;;;;5.60;4.10;;;8.20;99.90;8.10;101450.00;;;;4955814;28;112514;-67
2023/04/18 01:53:31;;;;;;;5.10;4.20;;;8.20;99.90;8.00;101443.00;;;;4958822;28;111840;-65
2023/04/18 01:55:57;;;;;;;5.47;4.13;;;8.20;99.90;8.00;101443.00;;;;4956887;28;110384;-66
2023/04/18 01:58:24;;;;;;;5.73;4.17;;;8.10;99.90;8.00;101437.00;;;;4972236;28;82816;-65
2023/04/18 02:00:53;;;;;;;4.27;3.87;;;8.10;99.90;8.00;101446.00;;;;4958278;28;84634;-66
2023/04/18 02:03:19;;;;;;;5.07;4.57;;;8.10;99.90;8.00;101439.00;;;;4954577;28;84596;-65
2023/04/18 02:05:46;;;;;;;6.07;4.33;;;8.10;99.90;7.90;101443.00;;;;4958891;28;82585;-65
2023/04/18 02:08:12;;;;;;;8.63;5.93;;;8.10;99.90;7.90;101432.00;;;;4958139;28;82727;-65
2023/04/18 02:10:38;;;;;;;6.03;4.80;;;8.10;99.90;7.90;101443.00;;;;4956875;28;83134;-67
2023/04/18 02:13:05;;;;;;;5.43;4.20;;;8.00;99.90;7.90;101440.00;;;;4957633;28;82981;-66
2023/04/18 02:15:32;;;;;;;6.97;5.10;;;8.00;99.90;7.90;101443.00;;;;4956586;28;82570;-66
2023/04/18 02:18:01;;;;;;;6.83;4.77;;;8.00;99.90;7.90;101442.00;;;;4955210;28;82062;-65
2023/04/18 02:20:32;;;;;;;5.77;4.57;;;8.00;99.90;7.90;101448.00;;;;4953409;28;83495;-65
2023/04/18 02:22:59;;;;;;;8.77;4.70;;;8.00;99.90;7.90;101449.00;;;;4956173;28;83670;-65
2023/04/18 02:25:26;;;;;;;6.90;4.83;;;7.90;99.90;7.90;101441.00;;;;4958610;28;83742;-65
2023/04/18 02:27:53;;;;;;;5.00;4.13;;;8.00;99.90;7.80;101446.00;;;;4961004;28;82925;-66
2023/04/18 02:30:19;;;;;;;6.73;4.83;;;7.90;99.90;7.80;101453.00;;;;4957505;28;83524;-66
2023/04/18 02:32:44;;;;;;;5.37;4.23;;;7.90;99.90;7.80;101442.00;;;;4957068;28;82932;-65
2023/04/18 02:35:11;;;;;;;3.97;3.43;;;7.90;99.90;7.80;101445.00;;;;4956809;28;108885;-66
2023/04/18 02:37:37;;;;;;;5.63;4.43;;;7.90;99.90;7.70;101452.00;;;;4955031;28;82922;-66
2023/04/18 02:40:06;;;;;;;5.37;4.43;;;7.90;99.90;7.70;101448.00;;;;4936835;28;111579;-66
2023/04/18 02:42:32;;;;;;;6.40;4.27;;;7.90;99.90;7.70;101443.00;;;;4943393;28;83680;-65
2023/04/18 02:44:57;;;;;;;6.20;4.97;;;7.80;99.90;7.70;101441.00;;;;4930684;28;107095;-66
2023/04/18 02:47:23;;;;;;;6.73;4.50;;;7.70;99.90;7.70;101438.00;;;;4931414;28;109010;-66
2023/04/18 02:49:49;;;;;;;5.37;4.47;;;7.80;99.90;7.70;101447.00;;;;4927292;28;112081;-65
2023/04/18 02:52:15;;;;;;;5.73;4.80;;;7.80;99.90;7.70;101441.00;;;;4932481;28;84972;-67
2023/04/18 02:54:40;;;;;;;5.63;4.17;;;7.80;99.90;7.70;101432.00;;;;4930780;28;108321;-66
2023/04/18 02:57:06;;;;;;;6.63;4.17;;;7.80;99.90;7.70;101436.00;;;;4931365;28;109623;-65
2023/04/18 02:59:32;;;;;;;6.87;4.50;;;7.80;99.90;7.70;101443.00;;;;4930404;28;111098;-65
2023/04/18 03:01:57;;;;;;;9.13;4.70;;;7.80;99.90;7.70;101450.00;;;;4926077;28;113244;-65
2023/04/18 03:04:23;;;;;;;6.90;5.13;;;7.80;99.90;7.70;101441.00;;;;4928437;28;108458;-67
2023/04/18 03:06:49;;;;;;;5.67;4.60;;;7.80;99.90;7.60;101445.00;;;;4931036;28;108910;-65
2023/04/18 03:09:15;;;;;;;8.50;4.57;;;7.80;99.90;7.60;101449.00;;;;4929837;28;91367;-65
2023/04/18 03:11:41;;;;;;;6.07;5.37;;;7.80;99.90;7.60;101453.00;;;;4945188;28;83419;-65
2023/04/18 03:14:07;;;;;;;6.40;4.60;;;7.70;99.90;7.60;101459.00;;;;4929526;28;83769;-65
2023/04/18 03:16:33;;;;;;;7.30;4.53;;;7.70;99.90;7.60;101452.00;;;;4930146;28;111169;-65
2023/04/18 03:18:58;;;;;;;5.77;4.63;;;8.40;99.90;7.60;101449.00;;;;4934249;28;112797;-65
2023/04/18 03:21:24;;;;;;;8.27;5.40;;;7.70;99.90;7.60;101448.00;;;;4946181;28;112576;-66
2023/04/18 03:23:51;;;;;;;7.13;3.77;;;8.00;99.90;7.60;101451.00;;;;4932601;28;82770;-65
2023/04/18 03:26:18;;;;;;;7.03;5.20;;;7.70;99.90;7.50;101446.00;;;;4931017;28;82934;-65
2023/04/18 03:28:44;;;;;;;9.80;5.67;;;8.10;99.90;7.50;101454.00;;;;4943644;28;83794;-66
2023/04/18 03:31:09;;;;;;;7.40;5.53;;;8.10;99.90;7.50;101443.00;;;;4944601;28;82696;-66
2023/04/18 03:33:35;;;;;;;6.67;4.93;;;7.60;99.90;7.50;101458.00;;;;4930680;28;103891;-65
2023/04/18 03:36:01;;;;;;;6.80;5.43;;;7.60;99.90;7.50;101441.00;;;;4929606;28;108220;-65
2023/04/18 03:38:26;;;;;;;8.50;5.67;;;8.10;99.90;7.50;101445.00;;;;4933258;28;84163;-65
2023/04/18 03:40:52;;;;;;;6.70;5.27;;;7.60;99.90;7.40;101451.00;;;;4929745;28;113989;-65
2023/04/18 03:43:21;;;;;;;7.67;5.00;;;7.60;99.90;7.40;101443.00;;;;4929151;28;84322;-66
2023/04/18 03:45:47;;;;;;;6.70;4.73;;;7.50;99.90;7.40;101449.00;;;;4932626;28;82644;-66
2023/04/18 03:48:13;;;;;;;9.03;5.87;;;7.50;99.90;7.40;101455.00;;;;4929354;28;111797;-65
2023/04/18 03:50:39;;;;;;;5.83;4.40;;;7.50;99.90;7.40;101459.00;;;;4943840;28;83277;-65
2023/04/18 03:53:05;;;;;;;6.80;5.00;;;7.50;99.90;7.40;101462.00;;;;4929905;28;82922;-65
2023/04/18 03:55:31;;;;;;;6.67;4.43;;;7.50;99.90;7.40;101459.00;;;;4933636;28;108763;-67
2023/04/18 03:57:59;;;;;;;6.90;5.70;;;7.50;99.90;7.40;101456.00;;;;4943947;28;112136;-66
2023/04/18 04:00:25;;;;;;;5.13;4.43;;;7.70;99.90;7.30;101461.00;;;;4958219;28;82873;-65
2023/04/18 04:02:51;;;;;;;6.40;4.47;;;7.50;99.90;7.30;101454.00;;;;4956426;28;83631;-67
2023/04/18 04:05:17;;;;;;;6.70;4.83;;;7.50;99.90;7.30;101467.00;;;;4952138;28;83833;-65
2023/04/18 04:07:42;;;;;;;7.10;5.13;;;7.50;99.90;7.30;101454.00;;;;4953485;28;111881;-66
2023/04/18 04:10:09;;;;;;;9.67;5.80;;;7.90;99.90;7.30;101465.00;;;;4964044;28;111923;-65
2023/04/18 04:12:35;;;;;;;4.77;4.37;;;7.40;99.90;7.30;101465.00;;;;4952036;28;82878;-65
2023/04/18 04:15:00;;;;;;;6.97;4.23;;;7.40;99.90;7.30;101476.00;;;;4956326;28;82758;-66
2023/04/18 04:17:26;;;;;;;5.07;4.57;;;7.40;99.90;7.40;101464.00;;;;4971546;28;104253;-65
2023/04/18 04:19:52;;;;;;;7.90;4.33;;;7.50;99.90;7.40;101468.00;;;;4956358;28;82810;-65
2023/04/18 04:22:17;;;;;;;5.03;4.33;;;7.80;99.90;7.40;101473.00;;;;4956768;28;82751;-67
2023/04/18 04:24:45;;;;;;;4.70;4.07;;;7.50;99.90;7.40;101464.00;;;;4955522;28;108449;-65
2023/04/18 04:27:12;;;;;;;5.70;4.43;;;7.50;99.90;7.40;101477.00;;;;4954338;28;84793;-65
2023/04/18 04:29:38;;;;;;;8.23;5.33;;;8.00;99.90;7.40;101465.00;;;;4952904;28;84016;-66
2023/04/18 04:32:05;;;;;;;7.23;4.13;;;7.50;99.90;7.40;101469.00;;;;4958021;28;90041;-66
2023/04/18 04:34:33;;;;;;;6.77;5.10;;;7.50;99.90;7.40;101477.00;;;;4953462;28;82630;-66
2023/04/18 04:37:00;;;;;;;5.40;4.27;;;7.50;99.90;7.40;101476.00;;;;4957433;28;83293;-65
2023/04/18 04:39:25;;;;;;;5.27;3.57;;;7.60;99.90;7.40;101476.00;;;;4951301;28;83272;-66
2023/04/18 04:41:52;;;;;;;4.83;4.17;;;7.50;99.90;7.40;101474.00;;;;4950464;28;111389;-66
2023/04/18 04:44:18;;;;;;;6.73;4.60;;;7.50;99.90;7.50;101475.00;;;;4949312;28;82075;-65
2023/04/18 04:46:44;;;;;;;5.00;3.73;;;7.80;99.90;7.40;101492.00;;;;4951885;28;82827;-65
2023/04/18 04:49:10;;;;;;;9.90;4.53;;;7.50;99.90;7.40;101495.00;;;;4948151;28;83409;-64
2023/04/18 04:51:36;;;;;;;6.23;4.27;;;7.60;99.90;7.40;101494.00;;;;4950711;28;96276;-66
2023/04/18 04:54:03;;;;;;;6.00;4.33;;;7.60;99.90;7.40;101493.00;;;;4948975;28;109108;-67
2023/04/18 04:56:28;;;;;;;3.93;3.40;;;7.50;99.90;7.40;101504.00;;;;4952774;28;102939;-65
2023/04/18 04:58:55;;;;;;;5.77;4.30;;;7.60;99.90;7.40;101497.00;;;;4984447;27;113987;-66
2023/04/18 05:01:21;;;;;;;4.17;2.70;;;7.50;99.90;7.50;101498.00;;;;4951242;28;83134;-64
2023/04/18 05:03:48;;;;;;;8.57;4.37;;;7.60;99.90;7.50;101502.00;;;;4952237;28;83188;-64
2023/04/18 05:06:19;;;;;;;4.93;3.70;;;7.60;99.90;7.50;101499.00;;;;4950944;28;83068;-65
2023/04/18 05:08:48;;;;;;;3.90;3.33;;;7.60;99.90;7.50;101490.00;;;;4961520;28;83189;-65
2023/04/18 05:11:14;;;;;;;5.17;4.50;;;7.60;99.90;7.50;101492.00;;;;4953033;28;82770;-65
2023/04/18 05:13:40;;;;;;;5.27;4.80;;;7.60;99.90;7.50;101492.00;;;;4956512;28;83014;-68
2023/04/18 05:16:06;;;;;;;5.00;4.57;;;7.60;99.90;7.50;101498.00;;;;4954938;28;113083;-66
2023/04/18 05:18:32;;;;;;;6.87;4.60;;;7.70;99.90;7.50;101501.00;;;;4956251;28;83666;-65
2023/04/18 05:20:57;;;;;;;9.43;5.23;;;7.60;99.90;7.50;101504.00;;;;4953767;28;102393;-64
2023/04/18 05:23:23;;;;;;;6.93;3.97;;;7.70;99.90;7.60;101513.00;;;;4958216;28;109115;-64
2023/04/18 05:25:49;;;;;;;5.53;3.37;;;7.70;99.90;7.60;101507.00;;;;4958779;28;112716;-65
2023/04/18 05:28:15;;;;;;;5.10;4.07;;;7.70;99.90;7.60;101512.00;;;;4955254;28;83020;-65
2023/04/18 05:30:41;;;;;;;5.60;4.10;;;7.80;99.90;7.60;101508.00;;;;4962030;28;82627;-66
2023/04/18 05:33:06;;;;;;;6.17;5.00;;;8.00;99.90;7.60;101515.00;;;;4958998;28;107607;-66
2023/04/18 05:35:32;;;;;;;7.47;4.73;;;7.70;99.90;7.60;101497.00;;;;4958401;28;112680;-65
2023/04/18 05:37:58;;;;;;;6.50;4.53;;;8.20;99.90;7.60;101499.00;;;;4956783;28;112531;-65
2023/04/18 05:40:26;;;;;;;7.17;5.03;;;7.70;99.90;7.60;101511.00;;;;4958542;28;110142;-66
2023/04/18 05:42:51;;;;;;;6.40;3.23;;;7.70;99.90;7.60;101510.00;;;;4959561;28;82662;-65
2023/04/18 05:45:17;;;;;;;5.23;3.70;;;7.80;99.90;7.50;101502.00;;;;4954970;28;84880;-65
2023/04/18 05:47:43;;;;;;;4.27;3.73;;;7.60;99.90;7.50;101508.00;;;;4953676;28;93808;-65
2023/04/18 05:50:09;;;;;;;4.33;3.73;;;7.60;99.90;7.50;101514.00;;;;4958203;28;82893;-65
2023/04/18 05:52:39;;;;;;;5.23;3.53;;;7.60;99.90;7.50;101509.00;;;;4955693;28;83169;-65
2023/04/18 05:55:06;;;;;;;4.50;3.63;;;7.80;99.90;7.60;101510.00;;;;4958881;28;83068;-64
2023/04/18 05:57:31;;;;;;;5.37;3.63;;;7.60;99.90;7.60;101516.00;;;;4956472;28;83661;-65
2023/04/18 05:59:57;;;;;;;7.30;4.03;;;7.70;99.90;7.60;101507.00;;;;4955810;28;82731;-65
2023/04/18 06:02:23;;;;;;;4.67;4.00;;;7.70;99.90;7.60;101515.00;;;;4955314;28;82862;-65
2023/04/18 06:04:49;;;;;;;4.60;3.83;;;7.70;99.90;7.70;101518.00;;;;4955556;28;84682;-64
2023/04/18 06:07:14;;;;;;;6.47;4.57;;;7.80;99.90;7.70;101521.00;;;;4956653;28;83601;-64
2023/04/18 06:09:40;;;;;;;6.60;4.60;;;7.80;99.90;7.70;101517.00;;;;4960377;28;95427;-66
2023/04/18 06:12:05;;;;;;;6.60;3.83;;;7.90;99.90;7.80;101520.00;;;;4957046;28;108307;-64
2023/04/18 06:14:31;;;;;;;4.87;4.30;;;7.90;99.90;7.80;101523.00;;;;4957081;28;113124;-66
2023/04/18 06:16:57;;;;;;;6.93;4.43;;;7.90;99.90;7.90;101523.00;;;;4956244;28;112466;-64
2023/04/18 06:19:23;;;;;;;6.23;4.67;;;8.00;99.90;7.90;101526.00;;;;4959111;28;111085;-65
2023/04/18 06:21:48;;;;;;;5.23;4.73;;;8.00;99.90;7.90;101532.00;;;;4957228;28;109306;-64
2023/04/18 06:24:14;;;;;;;8.13;5.53;;;8.00;99.90;8.00;101530.00;;;;4957194;28;101172;-66
2023/04/18 06:26:40;;;;;;;7.73;4.57;;;8.00;99.90;8.00;101536.00;;;;4957933;28;83086;-64
2023/04/18 06:29:06;;;;;;;8.77;7.10;;;8.10;99.90;8.00;101528.00;;;;4957128;28;110638;-66
2023/04/18 06:31:31;;;;;;;9.70;5.77;;;8.10;99.90;8.00;101532.00;;;;4957284;28;108362;-66
2023/04/18 06:33:57;;;;;;;9.43;4.20;;;8.10;99.90;8.00;101527.00;;;;4953961;28;113576;-65
2023/04/18 06:36:23;;;;;;;6.73;4.07;;;8.00;99.90;7.90;101534.00;;;;4956813;28;111736;-65
2023/04/18 06:38:48;;;;;;;5.97;3.47;;;8.00;99.90;7.90;101532.00;;;;4963076;28;82613;-63
2023/04/18 06:41:14;;;;;;;8.13;4.30;;;8.00;99.90;8.00;101541.00;;;;4953806;28;108273;-66
2023/04/18 06:43:40;;;;;;;7.60;4.37;;;8.10;99.90;8.00;101535.00;;;;4969382;28;83026;-64
2023/04/18 06:46:06;;;;;;;5.07;4.10;;;8.10;99.90;8.00;101546.00;;;;4956898;28;99025;-66
2023/04/18 06:48:32;;;;;;;5.90;3.20;;;8.10;99.90;8.00;101535.00;;;;4969110;28;82733;-65
2023/04/18 06:50:57;;;;;;;8.70;4.43;;;8.10;99.90;8.00;101535.00;;;;4957637;28;102751;-65
2023/04/18 06:53:23;;;;;;;7.07;4.43;;;8.10;99.90;8.10;101540.00;;;;4954102;28;89330;-65
2023/04/18 06:55:49;;;;;;;4.53;3.80;;;8.20;99.90;8.10;101543.00;;;;4952987;28;112607;-65
2023/04/18 06:58:15;;;;;;;8.77;4.57;;;8.20;99.90;8.10;101541.00;;;;4956445;28;92493;-65
2023/04/18 07:00:42;;;;;;;5.17;3.77;;;8.20;99.90;8.20;101539.00;;;;4968935;28;84114;-65
2023/04/18 07:03:11;;;;;;;6.57;5.27;;;8.30;99.90;8.30;101556.00;;;;4953496;28;82614;-65
2023/04/18 07:05:40;;;;;;;6.60;4.97;;;8.30;99.90;8.30;101549.00;;;;4960624;28;82886;-65
2023/04/18 07:08:06;;;;;;;6.07;4.20;;;8.60;99.90;8.40;101559.00;;;;4956544;28;110822;-64
2023/04/18 07:10:32;;;;;;;4.00;3.60;;;8.40;99.90;8.40;101548.00;;;;4955703;28;81805;-64
2023/04/18 07:12:57;;;;;;;7.20;3.63;;;8.50;99.90;8.50;101556.00;;;;4955345;28;94671;-63
2023/04/18 07:15:23;;;;;;;5.13;3.90;;;8.50;99.90;8.50;101550.00;;;;4956366;28;111742;-66
2023/04/18 07:17:49;;;;;;;4.67;4.00;;;8.60;99.90;8.50;101553.00;;;;4956090;28;84546;-65
2023/04/18 07:20:15;;;;;;;6.37;4.67;;;8.60;99.90;8.60;101554.00;;;;4950986;28;82769;-66
2023/04/18 07:22:40;;;;;;;6.10;4.30;;;8.60;99.90;8.60;101564.00;;;;4953265;28;82726;-64
2023/04/18 07:25:07;;;;;;;4.20;3.80;;;8.60;99.90;8.60;101554.00;;;;4953707;28;82903;-65
2023/04/18 07:27:35;;;;;;;5.33;4.27;;;8.70;99.90;8.60;101549.00;;;;4954485;28;82837;-66
2023/04/18 07:30:01;;;;;;;4.97;4.43;;;8.70;99.90;8.60;101554.00;;;;4957963;28;102575;-64
2023/04/18 07:32:27;;;;;;;6.43;4.07;;;8.70;99.90;8.70;101552.00;;;;4956169;28;82683;-65
2023/04/18 07:34:53;;;;;;;7.57;4.50;;;8.70;99.90;8.70;101547.00;;;;4955237;28;113338;-65
2023/04/18 07:37:20;;;;;;;7.33;5.10;;;8.80;99.90;8.90;101545.00;;;;4955322;28;82670;-66
2023/04/18 07:39:46;;;;;;;8.53;5.53;;;8.80;99.90;8.90;101544.00;;;;4951815;28;82772;-65
2023/04/18 07:42:12;;;;;;;6.27;4.47;;;9.00;99.90;9.00;101545.00;;;;4969762;28;90597;-65
2023/04/18 07:44:38;;;;;;;7.87;4.73;;;9.00;99.90;9.00;101548.00;;;;4957414;28;113220;-66
2023/04/18 07:47:10;;;;;;;6.40;4.73;;;9.10;99.90;9.00;101554.00;;;;4952596;28;89253;-66
2023/04/18 07:49:36;;;;;;;12.07;5.40;;;9.10;99.90;9.00;101561.00;;;;4956858;28;84022;-66
2023/04/18 07:52:02;;;;;;;8.53;5.70;;;9.10;99.90;9.00;101557.00;;;;4958358;28;103280;-65
2023/04/18 07:54:28;;;;;;;6.63;4.63;;;9.10;99.90;9.10;101550.00;;;;4958644;28;83061;-64
2023/04/18 07:56:53;;;;;;;6.27;4.83;;;9.10;99.90;9.10;101556.00;;;;4956694;28;94210;-64
2023/04/18 07:59:19;;;;;;;7.60;3.87;;;9.20;99.90;9.20;101557.00;;;;4954165;28;109971;-66
2023/04/18 08:01:45;;;;;;;6.47;5.37;;;9.20;99.90;9.30;101559.00;;;;4959288;28;83017;-65
2023/04/18 08:04:11;;;;;;;6.50;5.67;;;9.30;99.90;9.50;101563.00;;;;4954188;28;113413;-66
2023/04/18 08:06:37;;;;;;;8.10;5.80;;;9.40;99.90;9.50;101552.00;;;;4956899;28;83776;-66
2023/04/18 08:09:04;;;;;;;4.30;3.63;;;9.50;99.90;9.60;101551.00;;;;4958946;28;82644;-66
2023/04/18 08:11:31;;;;;;;7.93;4.97;;;9.60;99.90;9.70;101558.00;;;;4959499;28;83145;-65
2023/04/18 08:13:57;;;;;;;5.93;4.73;;;9.70;99.90;9.80;101562.00;;;;4952768;28;84880;-66
2023/04/18 08:16:22;;;;;;;6.57;5.20;;;9.80;99.90;9.90;101557.00;;;;4956194;28;109280;-66
2023/04/18 08:18:48;;;;;;;7.57;4.67;;;9.80;99.90;9.90;101546.00;;;;4950394;28;109566;-66
2023/04/18 08:21:14;;;;;;;9.53;5.27;;;9.90;99.90;9.90;101550.00;;;;4958526;28;112535;-66
2023/04/18 08:23:39;;;;;;;6.47;4.37;;;10.00;99.90;10.00;101544.00;;;;4949535;28;111943;-63
2023/04/18 08:26:05;;;;;;;6.90;5.40;;;10.00;99.90;10.00;101548.00;;;;4956237;28;82821;-66
2023/04/18 08:28:31;;;;;;;6.67;4.37;;;10.00;99.90;10.10;101546.00;;;;4972232;28;97913;-66
2023/04/18 08:30:57;;;;;;;8.33;5.97;;;10.10;99.90;10.20;101550.00;;;;4971812;28;83741;-67
2023/04/18 08:33:23;;;;;;;7.27;4.67;;;10.10;99.90;10.20;101548.00;;;;4956717;28;114375;-66
2023/04/18 08:35:50;;;;;;;8.97;5.80;;;10.20;99.90;10.40;101548.00;;;;4952402;28;82714;-66
2023/04/18 08:38:17;;;;;;;6.90;4.77;;;10.30;99.90;10.50;101562.00;;;;4954750;28;82523;-66
2023/04/18 08:40:43;;;;;;;9.13;6.00;;;10.50;99.90;10.70;101567.00;;;;4952822;28;82905;-66
2023/04/18 08:43:13;;;;;;;8.80;6.30;;;10.60;99.90;10.80;101556.00;;;;4953710;28;86804;-66
2023/04/18 08:45:43;;;;;;;6.77;5.30;;;10.70;99.90;10.80;101566.00;;;;4954588;28;82648;-66
2023/04/18 08:48:16;;;;;;;9.10;5.60;;;10.80;99.90;10.90;101564.00;;;;4957662;28;82489;-65
2023/04/18 08:50:43;;;;;;;5.77;5.03;;;10.90;99.90;10.90;101556.00;;;;4953256;28;101035;-67
2023/04/18 08:53:09;;;;;;;10.27;5.37;;;10.90;99.90;11.00;101563.00;;;;4953917;28;101732;-66
2023/04/18 08:55:36;;;;;;;5.27;4.77;;;10.90;99.90;11.10;101561.00;;;;4953585;28;83952;-65
2023/04/18 08:58:05;;;;;;;7.30;4.60;;;11.00;99.90;11.10;101562.00;;;;4958907;28;82689;-66
2023/04/18 09:00:31;;;;;;;7.00;4.90;;;11.10;99.90;11.20;101556.00;;;;4959902;28;82760;-66
2023/04/18 09:02:57;;;;;;;7.30;5.60;;;11.20;99.90;11.30;101555.00;;;;4959310;28;82771;-67
2023/04/18 09:05:25;;;;;;;7.83;5.53;;;11.20;99.90;11.30;101559.00;;;;4958206;28;82784;-66
2023/04/18 09:07:53;;;;;;;5.47;4.77;;;11.20;99.90;11.30;101556.00;;;;4963413;28;82735;-66
2023/04/18 09:10:33;;;;;;;7.40;5.87;;;11.30;99.90;11.40;101556.00;;;;4957222;28;84056;-66
2023/04/18 09:13:01;;;;;;;10.03;5.60;;;11.40;99.90;11.50;101557.00;;;;4967616;28;92835;-66
2023/04/18 09:15:28;;;;;;;5.73;4.97;;;11.40;99.90;11.60;101556.00;;;;4957899;28;82882;-66
2023/04/18 09:17:57;;;;;;;10.53;6.10;;;11.50;99.90;11.70;101558.00;;;;4958462;28;91447;-66
2023/04/18 09:20:42;;;;;;;8.07;4.90;;;11.60;99.90;11.80;101558.00;;;;4956058;28;83888;-66
2023/04/18 09:23:23;;;;;;;9.30;6.10;;;11.60;99.90;11.90;101561.00;;;;4959269;28;82812;-66
2023/04/18 09:25:51;;;;;;;9.30;6.00;;;11.80;99.90;11.90;101560.00;;;;4961405;28;82833;-66
2023/04/18 09:28:28;;;;;;;6.17;4.97;;;11.90;99.90;12.00;101570.00;;;;4962239;28;82726;-65
2023/04/18 09:31:15;;;;;;;8.00;5.57;;;11.90;99.90;12.00;101572.00;;;;4988390;27;83430;-64
2023/04/18 09:33:53;;;;;;;8.60;6.30;;;12.00;99.90;12.10;101565.00;;;;4956184;28;82789;-65
2023/04/18 09:36:25;;;;;;;8.47;6.63;;;12.00;99.90;12.10;101560.00;;;;4957815;28;82477;-65
2023/04/18 09:38:52;;;;;;;9.07;5.90;;;12.10;99.90;12.10;101566.00;;;;4958615;28;82478;-65
2023/04/18 09:41:18;;;;;;;8.47;6.20;;;12.10;99.90;12.10;101567.00;;;;4958240;28;84119;-65
2023/04/18 09:43:45;;;;;;;7.50;5.80;;;12.00;99.90;12.10;101569.00;;;;4955429;28;83730;-65
2023/04/18 09:46:11;;;;;;;7.57;5.60;;;12.10;99.90;12.10;101571.00;;;;4959634;28;83768;-66
2023/04/18 09:48:39;;;;;;;10.30;6.80;;;12.10;99.90;12.00;101568.00;;;;4954829;28;82948;-66
2023/04/18 09:51:10;;;;;;;8.57;5.97;;;12.00;99.90;12.00;101575.00;;;;4971956;28;83840;-65
2023/04/18 09:53:46;;;;;;;8.30;5.90;;;12.00;99.90;11.90;101573.00;;;;4956464;28;84947;-66
2023/04/18 09:56:27;;;;;;;6.37;5.33;;;12.00;99.90;11.90;101570.00;;;;4958683;28;82618;-65
2023/04/18 09:59:29;;;;;;;10.80;6.43;;;11.90;99.90;11.90;101562.00;;;;4963262;28;82565;-66
2023/04/18 10:01:58;;;;;;;7.03;6.10;;;11.90;99.90;12.00;101565.00;;;;4959508;28;82954;-66
2023/04/18 10:04:24;;;;;;;7.07;5.57;;;12.00;99.90;12.10;101562.00;;;;4987591;27;113068;-66
2023/04/18 10:06:52;;;;;;;9.63;5.43;;;12.10;99.90;12.20;101569.00;;;;4973575;28;82706;-66
2023/04/18 10:09:19;;;;;;;8.50;6.40;;;12.20;99.90;12.30;101568.00;;;;4958424;28;110160;-67
2023/04/18 10:11:46;;;;;;;7.67;5.60;;;12.20;99.90;12.30;101566.00;;;;4956609;28;113238;-65
2023/04/18 10:14:14;;;;;;;10.47;6.47;;;12.20;99.90;12.30;101563.00;;;;4954696;28;113206;-66
2023/04/18 10:16:41;;;;;;;8.27;6.90;;;12.30;99.90;12.30;101570.00;;;;4959297;28;94210;-65
2023/04/18 10:19:28;;;;;;;20.03;7.10;;;12.30;99.90;12.30;101570.00;;;;4973930;28;82796;-66
2023/04/18 10:21:57;;;;;;;8.00;5.87;;;12.30;99.90;12.30;101564.00;;;;4959224;28;82880;-65
2023/04/18 10:24:55;;;;;;;12.33;6.20;;;12.30;99.90;12.30;101567.00;;;;4954714;28;102488;-66
2023/04/18 10:27:48;;;;;;;14.47;6.97;;;12.30;99.90;12.30;101574.00;;;;4959504;28;82803;-65
2023/04/18 10:30:17;;;;;;;8.40;5.67;;;12.30;99.90;12.30;101566.00;;;;4953070;28;93972;-65
2023/04/18 10:32:45;;;;;;;8.67;6.73;;;12.30;99.90;12.30;101560.00;;;;4956013;28;107553;-66
2023/04/18 10:35:11;;;;;;;7.50;4.90;;;12.30;99.90;12.30;101572.00;;;;4955770;28;83693;-65
2023/04/18 10:37:50;;;;;;;9.03;5.57;;;12.30;99.90;12.30;101562.00;;;;4953786;28;110666;-66
2023/04/18 10:40:16;;;;;;;7.03;5.67;;;12.30;99.90;12.20;101574.00;;;;4956646;28;82889;-66
2023/04/18 10:42:51;;;;;;;8.00;5.83;;;12.10;99.90;12.20;101571.00;;;;4970539;28;83585;-65
2023/04/18 10:45:25;;;;;;;6.13;5.47;;;12.20;99.90;12.10;101566.00;;;;4954654;28;112892;-66
2023/04/18 10:48:31;;;;;;;7.50;4.90;;;12.10;99.90;11.90;101568.00;;;;4972218;28;84399;-65
2023/04/18 10:51:12;;;;;;;8.03;6.20;;;12.00;99.90;11.80;101558.00;;;;4959065;28;82803;-65
2023/04/18 10:53:38;;;;;;;9.17;5.93;;;11.80;99.90;11.70;101563.00;;;;4959636;28;82765;-65
2023/04/18 10:56:06;;;;;;;6.17;4.50;;;11.70;99.90;11.60;101555.00;;;;4958712;28;86317;-66